Great Falls International Airport
KGTF : now visible

Airfield :











YOU CAN JOIN US ON...

 
LOGIN :

Register | Disclaimer

   EN    FR    IT 

 









Legend :    VFR   Marginal VFR   IFR   Intensive IFR   Very Intensive IFR
Visi :
Ceiling :
>= 8 km
>= 3000ft
5 to 8 km
1000 to 3000 ft
1500m to 5 km
500 to 1000 ft
800 to 1500m
200 to 500 ft
< 800m
< 200 ft
Symbols :   Thunderstorms  Fog  Heavy snow  Heavy precipitations  Wind > 20 kt







- Airport Elevation : 3680 ft
- IATA code : GTF


KGTF - Great Falls International

CURRENT METAR :
  • 181853Z 24025G34KT 10SM FEW065 BKN085 BKN110 24/07 A2975 RMK AO2 PK WND 23034/1850 SLP046 T02390067

EXPIRED METARs :
  • 181753Z 25024G31KT 10SM BKN070 23/07 A2975 RMK AO2 PK WND 22036/1740 SLP048 T02280067 10244 20161 53001
  • 181653Z 23024G35KT 10SM FEW060 23/07 A2974 RMK AO2 PK WND 23040/1608 SLP044 T02280067

TAF KGTF
Valid from the 18 at 18:00 until the 19 at 18:00 UTC


181742Z 1818/1918 24024G36KT P6SM FEW070 SCT180
FM190300 26015G22KT P6SM FEW090 FEW250
FM190700 23011KT P6SM SKC
FM191500 24014G22KT P6SM SKC
KZLC FIR / North America



MET'MAP, your aeronautical weather chart ! - Copyright ORBIFLY December 2007 - Disclaimer

ORBIFLY MET'MAP TEAM :

Programming & Development : Alexandra Zaïnal
Concept & Development : Baudouin d'Aumeries
Co-Development & Prog : Marc-Olivier Méhu
Technical & hardware support : Manuel Goepfert

Contact : metmap@orbifly.com




SOURCES & CREDITS :

   NOAA       Earth
Advisory